Map

Track Data

SID SEASON NUMBER BASIN SUBBASIN NAME ISO_TIME NATURE LAT LON WMO_WIND WMO_PRES WMO_AGENCY TRACK_TYPE DIST2LAND LANDFALL IFLAG USA_AGENCY USA_ATCF_ID USA_LAT USA_LON USA_RECORD USA_STATUS USA_WIND USA_PRES USA_SSHS USA_R34_NE USA_R34_SE USA_R34_SW USA_R34_NW USA_R50_NE USA_R50_SE USA_R50_SW USA_R50_NW USA_R64_NE USA_R64_SE USA_R64_SW USA_R64_NW USA_POCI USA_ROCI USA_RMW USA_EYE TOKYO_LAT TOKYO_LON TOKYO_GRADE TOKYO_WIND TOKYO_PRES TOKYO_R50_DIR TOKYO_R50_LONG TOKYO_R50_SHORT TOKYO_R30_DIR TOKYO_R30_LONG TOKYO_R30_SHORT TOKYO_LAND CMA_LAT CMA_LON CMA_CAT CMA_WIND CMA_PRES HKO_LAT HKO_LON HKO_CAT HKO_WIND HKO_PRES NEWDELHI_LAT NEWDELHI_LON NEWDELHI_GRADE NEWDELHI_WIND NEWDELHI_PRES NEWDELHI_CI NEWDELHI_DP NEWDELHI_POCI REUNION_LAT REUNION_LON REUNION_TYPE REUNION_WIND REUNION_PRES REUNION_TNUM REUNION_CI REUNION_RMW REUNION_R34_NE REUNION_R34_SE REUNION_R34_SW REUNION_R34_NW REUNION_R50_NE REUNION_R50_SE REUNION_R50_SW REUNION_R50_NW REUNION_R64_NE REUNION_R64_SE REUNION_R64_SW REUNION_R64_NW BOM_LAT BOM_LON BOM_TYPE BOM_WIND BOM_PRES BOM_TNUM BOM_CI BOM_RMW BOM_R34_NE BOM_R34_SE BOM_R34_SW BOM_R34_NW BOM_R50_NE BOM_R50_SE BOM_R50_SW BOM_R50_NW BOM_R64_NE BOM_R64_SE BOM_R64_SW BOM_R64_NW BOM_ROCI BOM_POCI BOM_EYE BOM_POS_METHOD BOM_PRES_METHOD NADI_LAT NADI_LON NADI_CAT NADI_WIND NADI_PRES WELLINGTON_LAT WELLINGTON_LON WELLINGTON_WIND WELLINGTON_PRES DS824_LAT DS824_LON DS824_STAGE DS824_WIND DS824_PRES TD9636_LAT TD9636_LON TD9636_STAGE TD9636_WIND TD9636_PRES TD9635_LAT TD9635_LON TD9635_WIND TD9635_PRES TD9635_ROCI NEUMANN_LAT NEUMANN_LON NEUMANN_CLASS NEUMANN_WIND NEUMANN_PRES MLC_LAT MLC_LON MLC_CLASS MLC_WIND MLC_PRES USA_GUST BOM_GUST BOM_GUST_PER REUNION_GUST REUNION_GUST_PER USA_SEAHGT USA_SEARAD_NE USA_SEARAD_SE USA_SEARAD_SW USA_SEARAD_NW STORM_SPEED STORM_DIR
1880196N20089 1880 8 NI BB NOT_NAMED 1880-07-14 00:00:00 TS 20.4000 89.2000 main 134 123 _________O____ -1 20.4000 89.2000 TC 30 3 335
1880196N20089 1880 8 NI BB NOT_NAMED 1880-07-14 03:00:00 TS 20.5134 89.1334 main 123 111 _________PO___ -1 20.5701 89.1001 TC 30 20.4000 89.2000 1 3 327
1880196N20089 1880 8 NI BB NOT_NAMED 1880-07-14 06:00:00 TS 20.6263 89.0420 main 111 100 _________OP___ -1 20.7000 89.0000 TC 30 20.5159 89.1049 1 3 316
1880196N20089 1880 8 NI BB NOT_NAMED 1880-07-14 09:00:00 TS 20.7051 88.9348 main 100 90 _________PP___ -1 20.7649 88.8874 TC 30 20.6254 88.9979 1 3 299
1880196N20089 1880 8 NI BB NOT_NAMED 1880-07-14 12:00:00 TS 20.7611 88.7834 main 90 90 _________OP___ -1 20.8000 88.7000 TC 30 20.7222 88.8669 1 4 288
1880196N20089 1880 8 NI BB NOT_NAMED 1880-07-14 15:00:00 TS 20.8251 88.5363 main 89 78 _________PO___ -1 20.8501 88.3725 TC 30 20.8000 88.7000 1 5 283
1880196N20089 1880 8 NI BB NOT_NAMED 1880-07-14 18:00:00 TS 20.8778 88.2424 main 78 78 _________OP___ -1 20.9000 88.0000 TC 30 20.8555 88.4849 1 5 280
1880196N20089 1880 8 NI BB NOT_NAMED 1880-07-14 21:00:00 TS 20.9204 87.9758 main 80 66 _________PP___ -1 20.9420 87.7448 TC 30 20.8988 88.2068 1 6 279
1880196N20089 1880 8 NI BB NOT_NAMED 1880-07-15 00:00:00 TS 20.9713 87.6252 main 66 23 _________OP___ -1 21.0000 87.4000 TC 30 20.9426 87.8503 1 8 279
1880196N20089 1880 8 NI BB NOT_NAMED 1880-07-15 03:00:00 TS 21.0464 87.1013 main 23 0 _________PO___ -1 21.0927 86.8026 TC 30 21.0000 87.4000 1 11 278
1880196N20089 1880 8 NI BB NOT_NAMED 1880-07-15 06:00:00 TS 21.1227 86.4751 main 0 0 _________OP___ -1 21.2000 86.1000 TC 30 21.0455 86.8503 1 12 277
1880196N20089 1880 8 NI BB NOT_NAMED 1880-07-15 09:00:00 TS 21.1938 85.8374 main 0 0 _________PP___ -1 21.2771 85.4645 TC 30 21.1105 86.2103 1 12 279
1880196N20089 1880 8 NI BB NOT_NAMED 1880-07-15 12:00:00 TS 21.3101 85.1577 main 0 0 _________OP___ -1 21.4000 84.8000 TC 30 21.2202 85.5153 1 14 283
1880196N20089 1880 8 NI BB NOT_NAMED 1880-07-15 15:00:00 TS 21.4988 84.4249 main 0 0 _________PO___ -1 21.5976 84.0498 TC 30 21.4000 84.8000 1 15 290
1880196N20089 1880 8 NI BB NOT_NAMED 1880-07-15 18:00:00 TS 21.8040 83.6641 main 0 0 _________OP___ -1 21.9000 83.3000 TC 30 21.7080 84.0281 1 16 297
1880196N20089 1880 8 NI BB NOT_NAMED 1880-07-15 21:00:00 TS 22.2187 82.9076 main 0 0 _________PP___ -1 22.3577 82.5609 TC 30 22.0797 83.2544 1 15 303
1880196N20089 1880 8 NI BB NOT_NAMED 1880-07-16 00:00:00 TS 22.6307 82.2765 main 0 0 _________OP___ -1 22.8000 82.0000 TC 30 22.4613 82.5529 1 12 307
1880196N20089 1880 8 NI BB NOT_NAMED 1880-07-16 03:00:00 TS 22.9223 81.8871 main 0 0 _________PO___ -1 23.0445 81.7743 TC 30 22.8000 82.0000 1 7 312
1880196N20089 1880 8 NI BB NOT_NAMED 1880-07-16 06:00:00 TS 23.1096 81.6989 main 0 0 _________OP___ -1 23.2000 81.7000 TC 30 23.0192 81.6978 1 5 318
1880196N20089 1880 8 NI BB NOT_NAMED 1880-07-16 09:00:00 TS 23.2713 81.5524 main 0 0 _________PP___ -1 23.3500 81.5574 TC 30 23.1926 81.5473 1 4 322
1880196N20089 1880 8 NI BB NOT_NAMED 1880-07-16 12:00:00 TS 23.4224 81.4367 main 0 0 _________OP___ -1 23.5000 81.4000 TC 30 23.3449 81.4734 1 4 325
1880196N20089 1880 8 NI BB NOT_NAMED 1880-07-16 15:00:00 TS 23.5962 81.3038 main 0 0 _________PO___ -1 23.6925 81.2075 TC 30 23.5000 81.4000 1 4 324
1880196N20089 1880 8 NI BB NOT_NAMED 1880-07-16 18:00:00 TS 23.7725 81.1525 main 0 0 _________OP___ -1 23.9000 81.0000 TC 30 23.6769 81.2669 1 5 320
1880196N20089 1880 8 NI BB NOT_NAMED 1880-07-16 21:00:00 TS 23.9653 80.9651 main 0 0 _________PP___ -1 24.1025 80.7976 TC 30 23.8738 81.0768 1 5 317
1880196N20089 1880 8 NI BB NOT_NAMED 1880-07-17 00:00:00 TS 24.1558 80.7655 main 0 0 _________OP___ -1 24.3000 80.6000 TC 30 24.0838 80.8483 1 5 315
1880196N20089 1880 8 NI BB NOT_NAMED 1880-07-17 03:00:00 NR 24.3000 80.6000 main 0 __________O___ -1 TC 24.3000 80.6000 1 4 314

About IBTrACS Database

This database is a web-friendly format of International Best Track Archive for Climate Stewardship (IBTrACS), a global best track data archive curated by NOAA dating back to 1842.

Updated: 2021-11-26